createdAt,value
2022-11-29T00:01:38.137Z,101060.91
2022-11-29T00:04:45.693Z,101059.78
2022-11-29T00:07:51.294Z,101052.50
2022-11-29T00:10:58.557Z,101046.19
2022-11-29T00:14:06.002Z,101053.06
2022-11-29T00:17:13.392Z,101059.25
2022-11-29T00:20:20.293Z,101046.16
2022-11-29T00:23:26.501Z,101042.44
2022-11-29T00:26:34.672Z,101044.09
2022-11-29T00:29:44.019Z,101039.63
2022-11-29T00:32:50.323Z,101034.75
2022-11-29T00:36:01.749Z,101038.78
2022-11-29T00:39:07.976Z,101026.84
2022-11-29T00:42:14.686Z,101030.09
2022-11-29T00:45:22.535Z,101027.75
2022-11-29T00:48:30.859Z,101027.69
2022-11-29T00:51:41.784Z,101026.66
2022-11-29T00:54:48.658Z,101026.56
2022-11-29T00:57:58.406Z,101022.38
2022-11-29T01:01:06.658Z,101016.66
2022-11-29T01:04:14.129Z,101013.84
2022-11-29T01:07:21.434Z,101020.00
2022-11-29T01:10:28.200Z,101019.19
2022-11-29T01:13:35.572Z,101013.69
2022-11-29T01:16:41.885Z,101009.31
2022-11-29T01:19:50.915Z,101011.25
2022-11-29T01:22:58.423Z,101014.06
2022-11-29T01:26:10.882Z,101008.62
2022-11-29T01:29:18.641Z,101013.00
2022-11-29T01:32:24.571Z,101015.25
2022-11-29T01:35:33.330Z,101007.88
2022-11-29T01:38:41.905Z,101006.47
2022-11-29T01:41:48.664Z,101012.72
2022-11-29T01:45:16.740Z,101004.88
2022-11-29T01:48:28.783Z,101009.38
2022-11-29T01:51:40.956Z,101007.75
2022-11-29T01:54:53.486Z,101013.72
2022-11-29T01:58:03.458Z,101013.75
2022-11-29T02:01:09.067Z,101015.59
2022-11-29T02:04:17.542Z,101019.22
2022-11-29T02:07:24.887Z,101010.37
2022-11-29T02:10:47.184Z,101007.34
2022-11-29T02:14:07.215Z,101013.69
2022-11-29T02:17:32.356Z,101012.12
2022-11-29T02:20:43.027Z,101001.47
2022-11-29T02:24:06.567Z,101016.47
2022-11-29T02:27:26.285Z,101017.53
2022-11-29T02:30:34.967Z,101022.84
2022-11-29T02:33:46.463Z,101028.34
2022-11-29T02:37:11.403Z,101027.72
2022-11-29T02:40:34.166Z,101040.31
2022-11-29T02:43:38.912Z,101024.81
2022-11-29T02:46:55.751Z,101026.41
2022-11-29T02:50:14.312Z,101025.09
2022-11-29T02:53:39.210Z,101026.41
2022-11-29T02:56:48.124Z,101027.50
2022-11-29T03:00:02.247Z,101033.47
2022-11-29T03:03:16.929Z,101025.09
2022-11-29T03:06:28.891Z,101027.13
2022-11-29T03:09:35.839Z,101032.25
2022-11-29T03:12:48.893Z,101026.63
2022-11-29T03:16:11.465Z,101023.13
2022-11-29T03:19:24.651Z,101035.66
2022-11-29T03:22:33.704Z,101032.31
2022-11-29T03:25:46.503Z,101036.87
2022-11-29T03:28:56.509Z,101034.06
2022-11-29T03:32:11.043Z,101027.81
2022-11-29T03:35:21.155Z,101034.59
2022-11-29T03:38:44.376Z,101035.34
2022-11-29T03:41:53.447Z,101035.09
2022-11-29T03:45:09.646Z,101037.63
2022-11-29T03:48:20.861Z,101042.69
2022-11-29T03:51:30.797Z,101033.75
2022-11-29T03:54:53.786Z,101038.78
2022-11-29T03:58:22.206Z,101043.03
2022-11-29T04:01:52.312Z,101049.16
2022-11-29T04:05:29.527Z,101055.03
2022-11-29T04:08:40.711Z,101048.84
2022-11-29T04:11:56.624Z,101054.47
2022-11-29T04:15:23.838Z,101060.44
2022-11-29T04:18:34.990Z,101061.88
2022-11-29T04:21:51.263Z,101059.59
2022-11-29T04:24:59.139Z,101058.75
2022-11-29T04:28:08.471Z,101071.72
2022-11-29T04:31:40.590Z,101071.47
2022-11-29T04:35:06.290Z,101065.69
2022-11-29T04:38:18.804Z,101053.56
2022-11-29T04:41:26.794Z,101065.44
2022-11-29T04:44:53.913Z,101061.56
2022-11-29T04:48:22.270Z,101060.41
2022-11-29T04:51:32.383Z,101064.28
2022-11-29T04:54:37.519Z,101072.25
2022-11-29T04:57:51.439Z,101072.59
2022-11-29T05:00:59.659Z,101079.34
2022-11-29T05:04:13.963Z,101079.34
2022-11-29T05:07:29.260Z,101082.22
2022-11-29T05:10:47.677Z,101085.75
2022-11-29T05:14:02.821Z,101087.25
2022-11-29T05:17:21.156Z,101090.63
2022-11-29T05:20:44.796Z,101095.66
2022-11-29T05:23:54.887Z,101091.69
2022-11-29T05:27:00.385Z,101091.44
2022-11-29T05:30:16.845Z,101095.59
2022-11-29T05:33:25.724Z,101093.56
2022-11-29T05:36:40.712Z,101097.44
2022-11-29T05:39:58.997Z,101093.72
2022-11-29T05:43:44.063Z,101088.34
2022-11-29T05:46:58.737Z,101102.91
2022-11-29T05:50:04.083Z,101098.94
2022-11-29T05:53:32.541Z,101100.28
2022-11-29T05:56:47.912Z,101099.62
2022-11-29T05:59:55.588Z,101099.03
2022-11-29T06:03:15.264Z,101098.63
2022-11-29T06:06:29.002Z,101102.47
2022-11-29T06:09:50.547Z,101109.62
2022-11-29T06:13:14.702Z,101116.28
2022-11-29T06:16:21.832Z,101117.12
2022-11-29T06:19:33.554Z,101119.97
2022-11-29T06:22:47.130Z,101121.06
2022-11-29T06:26:04.029Z,101128.81
2022-11-29T06:29:26.295Z,101121.91
2022-11-29T06:32:34.958Z,101119.78
2022-11-29T06:35:46.661Z,101128.41
2022-11-29T06:38:51.002Z,101126.66
2022-11-29T06:41:55.607Z,101132.09
2022-11-29T06:45:02.110Z,101134.72
2022-11-29T06:48:10.466Z,101133.88
2022-11-29T06:51:23.416Z,101134.72
2022-11-29T06:54:27.384Z,101135.16
2022-11-29T06:57:35.036Z,101132.88
2022-11-29T07:00:49.113Z,101134.97
2022-11-29T07:03:59.768Z,101129.75
2022-11-29T07:07:04.346Z,101140.19
2022-11-29T07:10:15.085Z,101139.19
2022-11-29T07:13:18.877Z,101142.53
2022-11-29T07:16:41.867Z,101139.75
2022-11-29T07:19:47.126Z,101143.53
2022-11-29T07:22:56.986Z,101143.66
2022-11-29T07:26:03.631Z,101149.53
2022-11-29T07:29:17.430Z,101149.25
2022-11-29T07:32:40.248Z,101147.69
2022-11-29T07:35:56.181Z,101142.53
2022-11-29T07:39:15.259Z,101138.69
2022-11-29T07:42:32.682Z,101144.66
2022-11-29T07:45:39.100Z,101156.03
2022-11-29T07:48:44.381Z,101158.53
2022-11-29T07:51:48.164Z,101154.50
2022-11-29T07:54:54.121Z,101152.06
2022-11-29T07:57:57.842Z,101146.25
2022-11-29T08:01:03.004Z,101154.25
2022-11-29T08:04:10.024Z,101157.69
2022-11-29T08:07:14.001Z,101165.59
2022-11-29T08:10:18.657Z,101158.06
2022-11-29T08:13:22.530Z,101159.06
2022-11-29T08:16:26.829Z,101153.91
2022-11-29T08:19:30.139Z,101155.09
2022-11-29T08:22:33.803Z,101148.25
2022-11-29T08:25:36.784Z,101156.09
2022-11-29T08:28:40.977Z,101154.56
2022-11-29T08:31:45.506Z,101150.50
2022-11-29T08:34:49.619Z,101156.59
2022-11-29T08:37:54.577Z,101160.59
2022-11-29T08:41:02.587Z,101162.97
2022-11-29T08:44:07.356Z,101161.59
2022-11-29T08:47:31.422Z,101164.28
2022-11-29T08:50:36.623Z,101174.00
2022-11-29T08:53:44.425Z,101166.22
2022-11-29T09:00:13.150Z,101165.47
2022-11-29T09:03:35.819Z,101165.72
2022-11-29T09:06:42.476Z,101164.34
2022-11-29T09:09:46.578Z,101163.19
2022-11-29T09:12:53.261Z,101158.16
2022-11-29T09:15:57.827Z,101161.97
2022-11-29T09:19:02.992Z,101156.88
2022-11-29T09:22:06.714Z,101154.31
2022-11-29T09:25:11.441Z,101153.31
2022-11-29T09:28:14.899Z,101154.16
2022-11-29T09:31:18.115Z,101147.66
2022-11-29T09:34:24.335Z,101146.91
2022-11-29T09:37:29.154Z,101148.75
2022-11-29T09:40:39.464Z,101154.91
2022-11-29T09:44:01.485Z,101151.69
2022-11-29T09:47:14.057Z,101148.41
2022-11-29T09:50:17.379Z,101146.78
2022-11-29T09:53:31.709Z,101148.06
2022-11-29T09:56:39.445Z,101144.16
2022-11-29T09:59:46.310Z,101140.44
2022-11-29T10:03:01.789Z,101140.81
2022-11-29T10:06:14.785Z,101137.69
2022-11-29T10:09:23.493Z,101136.84
2022-11-29T10:12:39.302Z,101131.78
2022-11-29T10:15:44.522Z,101125.53
2022-11-29T10:18:55.455Z,101118.63
2022-11-29T10:22:28.274Z,101106.66
2022-11-29T10:25:34.615Z,101111.84
2022-11-29T10:28:38.002Z,101107.06
2022-11-29T10:31:44.264Z,101119.03
2022-11-29T10:34:49.183Z,101117.72
2022-11-29T10:38:22.562Z,101116.28
2022-11-29T10:41:22.595Z,101115.16
2022-11-29T10:44:28.042Z,101109.88
2022-11-29T10:47:32.603Z,101105.94
2022-11-29T10:50:37.487Z,101099.94
2022-11-29T10:53:41.462Z,101105.75
2022-11-29T10:56:46.391Z,101098.19
2022-11-29T11:00:04.795Z,101094.94
2022-11-29T11:03:17.725Z,101099.31
2022-11-29T11:06:21.487Z,101101.09
2022-11-29T11:09:43.055Z,101094.16
2022-11-29T11:13:01.294Z,101091.28
2022-11-29T11:16:17.801Z,101097.25
2022-11-29T11:19:22.595Z,101092.50
2022-11-29T11:22:26.975Z,101096.69
2022-11-29T11:25:38.358Z,101098.75
2022-11-29T11:28:50.234Z,101097.81
2022-11-29T11:31:58.060Z,101085.66
2022-11-29T11:35:02.439Z,101090.06
2022-11-29T11:38:05.842Z,101097.41
2022-11-29T11:41:59.334Z,101093.38
2022-11-29T11:45:03.696Z,101097.13
2022-11-29T11:48:14.854Z,101089.09
2022-11-29T11:51:24.365Z,101091.31
2022-11-29T11:54:29.243Z,101092.97
2022-11-29T11:57:32.018Z,101096.91
2022-11-29T12:01:03.025Z,101093.69
2022-11-29T12:04:21.057Z,101086.50
2022-11-29T12:08:07.428Z,101091.00
2022-11-29T12:11:10.514Z,101095.09
2022-11-29T12:14:24.558Z,101096.31
2022-11-29T12:17:40.933Z,101095.38
2022-11-29T12:20:50.373Z,101090.78
2022-11-29T12:24:00.020Z,101096.22
2022-11-29T12:27:06.077Z,101086.81
2022-11-29T12:30:13.226Z,101085.66
2022-11-29T12:33:32.295Z,101082.78
2022-11-29T12:36:38.704Z,101076.88
2022-11-29T12:39:48.759Z,101070.87
2022-11-29T12:43:11.372Z,101074.63
2022-11-29T12:46:28.179Z,101071.81
2022-11-29T12:49:54.290Z,101074.25
2022-11-29T12:53:03.044Z,101071.34
2022-11-29T12:56:24.193Z,101072.44
2022-11-29T12:59:26.530Z,101072.53
2022-11-29T13:02:35.253Z,101078.44
2022-11-29T13:05:37.529Z,101078.38
2022-11-29T13:08:54.193Z,101071.56
2022-11-29T13:12:23.073Z,101076.16
2022-11-29T13:15:38.260Z,101078.50
2022-11-29T13:18:43.627Z,101067.34
2022-11-29T13:21:52.733Z,101063.75
2022-11-29T13:25:01.286Z,101068.31
2022-11-29T13:28:22.291Z,101068.06
2022-11-29T13:31:25.632Z,101074.06
2022-11-29T13:34:36.277Z,101075.22
2022-11-29T13:37:57.589Z,101069.53
2022-11-29T13:41:26.779Z,101062.03
2022-11-29T13:44:48.531Z,101070.84
2022-11-29T13:47:53.195Z,101070.69
2022-11-29T13:50:58.544Z,101071.03
2022-11-29T13:54:03.225Z,101074.09
2022-11-29T13:57:07.720Z,101068.41
2022-11-29T14:00:29.038Z,101070.53
2022-11-29T14:03:39.698Z,101067.69
2022-11-29T14:06:46.907Z,101074.59
2022-11-29T14:10:26.400Z,101078.53
2022-11-29T14:13:37.936Z,101079.53
2022-11-29T14:16:45.824Z,101075.94
2022-11-29T14:19:51.018Z,101070.41
2022-11-29T14:23:05.148Z,101073.22
2022-11-29T14:26:11.702Z,101073.84
2022-11-29T14:29:34.894Z,101071.22
2022-11-29T14:32:42.791Z,101074.63
2022-11-29T14:35:57.249Z,101064.19
2022-11-29T14:39:19.560Z,101072.28
2022-11-29T14:42:24.881Z,101074.06
2022-11-29T14:45:29.797Z,101067.19
2022-11-29T14:48:37.814Z,101068.69
2022-11-29T14:52:02.639Z,101073.47
2022-11-29T14:55:18.023Z,101067.31
2022-11-29T14:58:23.889Z,101062.41
2022-11-29T15:01:28.704Z,101063.97
2022-11-29T15:04:40.060Z,101066.25
2022-11-29T15:07:47.440Z,101070.53
2022-11-29T15:10:54.552Z,101073.81
2022-11-29T15:14:04.643Z,101073.59
2022-11-29T15:17:18.266Z,101069.62
2022-11-29T15:20:38.284Z,101073.59
2022-11-29T15:23:43.951Z,101067.34
2022-11-29T15:27:18.425Z,101066.09
2022-11-29T15:30:34.044Z,101069.84
2022-11-29T15:33:39.684Z,101070.25
2022-11-29T15:36:45.562Z,101066.25
2022-11-29T15:40:01.176Z,101074.37
2022-11-29T15:43:20.082Z,101072.62
2022-11-29T15:46:26.398Z,101077.97
2022-11-29T15:49:32.039Z,101074.53
2022-11-29T15:52:38.441Z,101075.78
2022-11-29T15:55:43.146Z,101079.25
2022-11-29T15:58:53.549Z,101081.31
2022-11-29T16:02:01.138Z,101076.28
2022-11-29T16:05:10.470Z,101063.22
2022-11-29T16:08:18.844Z,101063.00
2022-11-29T16:11:26.076Z,101065.16
2022-11-29T16:14:31.249Z,101080.03
2022-11-29T16:17:38.180Z,101086.84
2022-11-29T16:21:00.793Z,101079.91
2022-11-29T16:24:22.987Z,101085.25
2022-11-29T16:27:28.518Z,101079.00
2022-11-29T16:30:35.479Z,101083.47
2022-11-29T16:33:40.762Z,101080.34
2022-11-29T16:36:47.444Z,101075.34
2022-11-29T16:39:58.046Z,101082.78
2022-11-29T16:43:03.944Z,101086.03
2022-11-29T16:46:28.329Z,101094.81
2022-11-29T16:49:38.023Z,101096.84
2022-11-29T16:52:44.120Z,101096.56
2022-11-29T16:55:53.054Z,101104.69
2022-11-29T16:59:25.150Z,101105.66
2022-11-29T17:02:33.856Z,101106.50
2022-11-29T17:05:44.534Z,101109.28
2022-11-29T17:08:54.960Z,101118.25
2022-11-29T17:12:04.363Z,101115.06
2022-11-29T17:15:09.955Z,101115.91
2022-11-29T17:18:16.139Z,101116.75
2022-11-29T17:21:24.245Z,101118.31
2022-11-29T17:24:29.661Z,101123.53
2022-11-29T17:27:37.846Z,101127.28
2022-11-29T17:30:46.014Z,101127.75
2022-11-29T17:33:55.108Z,101129.72
2022-11-29T17:37:04.603Z,101124.28
2022-11-29T17:40:15.892Z,101126.59
2022-11-29T17:43:22.700Z,101130.00
2022-11-29T17:46:33.227Z,101132.22
2022-11-29T17:49:39.189Z,101132.00
2022-11-29T17:52:46.941Z,101130.03
2022-11-29T17:55:52.316Z,101129.03
2022-11-29T17:59:00.390Z,101126.13
2022-11-29T18:02:06.609Z,101128.50
2022-11-29T18:05:13.181Z,101129.81
2022-11-29T18:08:20.777Z,101132.50
2022-11-29T18:11:41.642Z,101128.66
2022-11-29T18:14:53.128Z,101132.47
2022-11-29T18:17:58.887Z,101128.28
2022-11-29T18:21:06.322Z,101122.50
2022-11-29T18:24:13.980Z,101125.47
2022-11-29T18:27:22.158Z,101126.97
2022-11-29T18:30:28.931Z,101140.88
2022-11-29T18:33:36.329Z,101127.94
2022-11-29T18:36:48.426Z,101131.50
2022-11-29T18:39:55.856Z,101134.41
2022-11-29T18:43:04.685Z,101138.22
2022-11-29T18:46:15.388Z,101147.28
2022-11-29T18:49:24.064Z,101142.81
2022-11-29T18:52:30.583Z,101134.28
2022-11-29T18:55:37.745Z,101128.66
2022-11-29T18:58:46.200Z,101144.38
2022-11-29T19:01:53.022Z,101140.28
2022-11-29T19:05:02.493Z,101137.09
2022-11-29T19:08:11.719Z,101138.19
2022-11-29T19:11:21.728Z,101141.94
2022-11-29T19:14:33.346Z,101140.16
2022-11-29T19:17:43.328Z,101141.28
2022-11-29T19:20:53.071Z,101145.69
2022-11-29T19:24:01.758Z,101148.75
2022-11-29T19:27:09.031Z,101150.88
2022-11-29T19:30:18.496Z,101142.47
2022-11-29T19:33:25.498Z,101141.84
2022-11-29T19:36:35.050Z,101139.13
2022-11-29T19:39:40.745Z,101150.81
2022-11-29T19:42:49.052Z,101150.28
2022-11-29T19:45:56.808Z,101147.62
2022-11-29T19:49:04.879Z,101146.03
2022-11-29T19:52:13.194Z,101149.25
2022-11-29T19:55:19.907Z,101141.59
2022-11-29T19:58:29.168Z,101148.38
2022-11-29T20:01:43.424Z,101148.19
2022-11-29T20:04:50.659Z,101150.00
2022-11-29T20:07:54.787Z,101141.09
2022-11-29T20:11:07.962Z,101137.19
2022-11-29T20:14:13.041Z,101135.25
2022-11-29T20:17:19.401Z,101136.22
2022-11-29T20:20:26.333Z,101138.50
2022-11-29T20:23:32.831Z,101136.91
2022-11-29T20:26:38.342Z,101135.41
2022-11-29T20:29:46.556Z,101132.34
2022-11-29T20:32:51.925Z,101141.16
2022-11-29T20:36:08.440Z,101141.22
2022-11-29T20:39:13.710Z,101137.78
2022-11-29T20:42:28.241Z,101130.12
2022-11-29T20:45:35.115Z,101128.06
2022-11-29T20:48:42.631Z,101138.25
2022-11-29T20:51:54.775Z,101138.25
2022-11-29T20:55:01.173Z,101136.94
2022-11-29T20:58:08.913Z,101128.69
2022-11-29T21:01:14.854Z,101134.72
2022-11-29T21:04:23.671Z,101124.94
2022-11-29T21:07:30.707Z,101126.44
2022-11-29T21:10:36.431Z,101129.13
2022-11-29T21:13:44.220Z,101139.78
2022-11-29T21:16:49.796Z,101134.19
2022-11-29T21:19:59.372Z,101137.03
2022-11-29T21:23:11.013Z,101127.19
2022-11-29T21:26:22.143Z,101131.94
2022-11-29T21:29:28.115Z,101139.63
2022-11-29T21:32:36.485Z,101133.25
2022-11-29T21:35:46.476Z,101137.88
2022-11-29T21:39:00.851Z,101136.72
2022-11-29T21:42:09.278Z,101137.88
2022-11-29T21:45:16.214Z,101140.38
2022-11-29T21:48:42.074Z,101136.44
2022-11-29T21:51:48.636Z,101147.75
2022-11-29T21:54:52.287Z,101140.25
2022-11-29T21:57:55.569Z,101144.53
2022-11-29T22:01:09.186Z,101142.91
2022-11-29T22:04:14.104Z,101142.31
2022-11-29T22:07:22.186Z,101138.47
2022-11-29T22:10:28.463Z,101138.50
2022-11-29T22:13:31.479Z,101130.28
2022-11-29T22:16:35.175Z,101134.84
2022-11-29T22:19:39.860Z,101137.06
2022-11-29T22:22:49.235Z,101141.03
2022-11-29T22:25:56.217Z,101137.16
2022-11-29T22:29:06.631Z,101139.91
2022-11-29T22:32:12.046Z,101130.66
2022-11-29T22:35:18.703Z,101138.50
2022-11-29T22:38:21.825Z,101134.84
2022-11-29T22:41:26.738Z,101128.31
2022-11-29T22:44:30.904Z,101128.03
2022-11-29T22:47:35.633Z,101117.44
2022-11-29T22:50:41.526Z,101121.91
2022-11-29T22:53:54.022Z,101133.78
2022-11-29T22:56:58.151Z,101128.75
2022-11-29T23:00:04.477Z,101127.78
2022-11-29T23:03:10.612Z,101113.22
2022-11-29T23:06:17.343Z,101120.34
2022-11-29T23:09:23.095Z,101118.41
2022-11-29T23:12:29.162Z,101115.28
2022-11-29T23:15:33.854Z,101111.91
2022-11-29T23:18:42.247Z,101108.63
2022-11-29T23:21:50.316Z,101112.28
2022-11-29T23:25:01.391Z,101110.38
2022-11-29T23:28:10.319Z,101103.00
2022-11-29T23:31:22.322Z,101107.28
2022-11-29T23:34:30.118Z,101103.22
2022-11-29T23:37:36.210Z,101097.87
2022-11-29T23:40:42.382Z,101092.81
2022-11-29T23:43:48.129Z,101097.31
2022-11-29T23:46:52.807Z,101106.06
2022-11-29T23:50:02.326Z,101096.72
2022-11-29T23:53:08.783Z,101109.28
2022-11-29T23:56:16.442Z,101110.97
2022-11-29T23:59:22.850Z,101106.75
